Time;durP1;ratioP1;P1;durP2;ratioP2;P2;SDS_P1;SDS_P2;PMS_P1;PMS_P2;Temp;Humidity;BMP_temperature;BMP_pressure;BME280_temperature;BME280_humidity;BME280_pressure;Samples;Min_cycle;Max_cycle;Signal;HPM_P1;HPM_P2
2022/12/05 00:01:36;;;;;;;1999.90;999.90;;;4.20;99.90;;;;;;5032895;28;20415;-69
2022/12/05 00:04:05;;;;;;;1999.90;999.90;;;4.20;99.90;;;;;;5032710;28;20426;-70
2022/12/05 00:06:32;;;;;;;1999.90;999.90;;;4.20;99.90;;;;;;5032370;28;20607;-70
2022/12/05 00:08:58;;;;;;;1999.90;999.90;;;4.20;99.90;;;;;;5031374;28;20446;-70
2022/12/05 00:11:26;;;;;;;1999.90;999.90;;;4.20;99.90;;;;;;5031887;28;20407;-70
2022/12/05 00:13:54;;;;;;;1999.90;999.90;;;4.20;99.90;;;;;;5031928;28;20514;-70
2022/12/05 00:16:23;;;;;;;1999.90;999.90;;;4.20;99.90;;;;;;5032014;28;20411;-70
2022/12/05 00:18:49;;;;;;;1999.90;999.90;;;4.10;99.90;;;;;;5031891;28;20884;-70
2022/12/05 00:21:20;;;;;;;1999.90;999.90;;;4.10;99.90;;;;;;5032001;28;20403;-70
2022/12/05 00:23:46;;;;;;;1999.90;999.90;;;4.00;99.90;;;;;;5031945;28;20426;-70
2022/12/05 00:26:12;;;;;;;1999.90;999.90;;;3.90;99.90;;;;;;5031845;28;20410;-70
2022/12/05 00:28:39;;;;;;;1999.90;999.90;;;3.90;99.90;;;;;;5031754;28;20451;-70
2022/12/05 00:31:10;;;;;;;1999.90;999.90;;;3.90;99.90;;;;;;5032174;28;20510;-70
2022/12/05 00:33:36;;;;;;;1999.90;999.90;;;3.90;99.90;;;;;;5031812;28;20480;-70
2022/12/05 00:36:11;;;;;;;1999.90;999.90;;;3.90;99.90;;;;;;5031802;28;20485;-70
2022/12/05 00:38:37;;;;;;;1999.90;999.90;;;3.90;99.90;;;;;;5031572;28;20870;-70
2022/12/05 00:41:05;;;;;;;1999.90;999.90;;;3.90;99.90;;;;;;5031823;28;20212;-70
2022/12/05 00:43:31;;;;;;;1999.90;999.90;;;3.90;99.90;;;;;;5031711;28;20508;-70
2022/12/05 00:46:01;;;;;;;1999.90;999.90;;;4.00;99.90;;;;;;5031696;28;20490;-70
2022/12/05 00:48:26;;;;;;;1999.90;999.90;;;4.00;99.90;;;;;;5031653;28;20411;-70
2022/12/05 00:51:05;;;;;;;1999.90;999.90;;;3.90;99.90;;;;;;5031746;28;20180;-70
2022/12/05 00:53:31;;;;;;;1999.90;999.90;;;3.90;99.90;;;;;;5031724;28;20606;-70
2022/12/05 00:56:02;;;;;;;1999.90;999.90;;;3.90;99.90;;;;;;5031900;28;20414;-70
2022/12/05 00:58:28;;;;;;;1999.90;999.90;;;4.00;99.90;;;;;;5031620;28;20583;-70
2022/12/05 01:00:53;;;;;;;1999.90;999.90;;;4.00;99.90;;;;;;5031779;28;20414;-70
2022/12/05 01:03:19;;;;;;;1999.90;999.90;;;4.00;99.90;;;;;;5031727;28;20670;-70
2022/12/05 01:05:44;;;;;;;1999.90;999.90;;;4.00;99.90;;;;;;5031650;28;20177;-70
2022/12/05 01:08:10;;;;;;;1999.90;999.90;;;4.00;99.90;;;;;;5031603;28;20252;-70
2022/12/05 01:10:36;;;;;;;1999.90;999.90;;;4.00;99.90;;;;;;5031887;28;20161;-70
2022/12/05 01:13:01;;;;;;;1999.90;999.90;;;4.00;99.90;;;;;;5031669;28;20192;-70
2022/12/05 01:15:27;;;;;;;1999.90;999.90;;;4.00;99.90;;;;;;5031652;28;20196;-70
2022/12/05 01:17:52;;;;;;;1999.90;999.90;;;4.00;99.90;;;;;;5031277;28;20633;-70
2022/12/05 01:20:18;;;;;;;1999.90;999.90;;;4.10;99.90;;;;;;5031743;28;20180;-70
2022/12/05 01:22:43;;;;;;;1999.90;999.90;;;4.00;99.90;;;;;;5035193;28;20172;-70
2022/12/05 01:25:09;;;;;;;1999.90;999.90;;;4.00;99.90;;;;;;5035269;28;20180;-70
2022/12/05 01:27:35;;;;;;;1999.90;999.90;;;4.00;99.90;;;;;;5034771;28;20179;-70
2022/12/05 01:30:00;;;;;;;1999.90;999.90;;;4.00;99.90;;;;;;5035052;28;20199;-70
2022/12/05 01:32:26;;;;;;;1999.90;999.90;;;4.00;99.90;;;;;;5035109;28;20176;-70
2022/12/05 01:34:53;;;;;;;1999.90;999.90;;;4.00;99.90;;;;;;5035041;28;20417;-70
2022/12/05 01:37:19;;;;;;;1999.90;999.90;;;4.00;99.90;;;;;;5034678;28;20176;-70
2022/12/05 01:39:44;;;;;;;1999.90;999.90;;;4.10;99.90;;;;;;5034869;28;20411;-70
2022/12/05 01:42:11;;;;;;;1999.90;999.90;;;4.10;99.90;;;;;;5034728;28;20685;-70
2022/12/05 01:44:36;;;;;;;1999.90;999.90;;;4.10;99.90;;;;;;5034689;28;20199;-70
2022/12/05 01:47:02;;;;;;;1999.90;999.90;;;4.10;99.90;;;;;;5034444;28;20415;-70
2022/12/05 01:49:34;;;;;;;1999.90;999.90;;;4.10;99.90;;;;;;5034413;28;20196;-70
2022/12/05 01:52:22;;;;;;;1999.90;999.90;;;4.10;99.90;;;;;;5034654;28;20634;-70
2022/12/05 01:54:50;;;;;;;1999.90;999.90;;;4.20;99.90;;;;;;5034363;28;20447;-70
2022/12/05 01:57:16;;;;;;;1999.90;999.90;;;4.20;99.90;;;;;;5034228;28;20411;-70
2022/12/05 01:59:47;;;;;;;1999.90;999.90;;;4.20;99.90;;;;;;5034425;28;20403;-70
2022/12/05 02:02:13;;;;;;;1999.90;999.90;;;4.20;99.90;;;;;;5034403;28;20407;-70
2022/12/05 02:05:10;;;;;;;1999.90;999.90;;;4.10;99.90;;;;;;5034202;28;20443;-70
2022/12/05 02:07:39;;;;;;;1999.90;999.90;;;4.10;99.90;;;;;;5030969;28;20180;-70
2022/12/05 02:10:06;;;;;;;1999.90;999.90;;;4.10;99.90;;;;;;5034153;28;20963;-70
2022/12/05 02:12:33;;;;;;;1999.90;999.90;;;4.10;99.90;;;;;;5034076;28;20458;-70
2022/12/05 02:15:12;;;;;;;1999.90;999.90;;;4.10;99.90;;;;;;5034065;28;20560;-70
2022/12/05 02:18:04;;;;;;;1999.90;999.90;;;4.10;99.90;;;;;;5034302;28;20438;-70
2022/12/05 02:20:48;;;;;;;1999.90;999.90;;;4.10;99.90;;;;;;5034665;28;20794;-69
2022/12/05 02:23:39;;;;;;;1999.90;999.90;;;4.10;99.90;;;;;;5034748;28;20837;-69
2022/12/05 02:26:29;;;;;;;1999.90;999.90;;;4.10;99.90;;;;;;5034315;28;20403;-69
2022/12/05 02:29:10;;;;;;;1999.90;999.90;;;4.10;99.90;;;;;;5034270;28;20483;-69
2022/12/05 02:31:40;;;;;;;1999.90;999.90;;;4.10;99.90;;;;;;5034298;28;20849;-69
2022/12/05 02:34:17;;;;;;;1999.90;999.90;;;4.10;99.90;;;;;;5033590;28;20477;-69
2022/12/05 02:37:01;;;;;;;1999.90;999.90;;;4.10;99.90;;;;;;5034063;28;20411;-69
2022/12/05 02:39:44;;;;;;;1999.90;999.90;;;4.10;99.90;;;;;;5034270;28;20471;-69
2022/12/05 02:42:23;;;;;;;1999.90;999.90;;;4.10;99.90;;;;;;5034481;28;20752;-69
2022/12/05 02:45:11;;;;;;;1999.90;999.90;;;4.10;99.90;;;;;;5034545;28;20422;-70
2022/12/05 02:47:43;;;;;;;1999.90;999.90;;;4.10;99.90;;;;;;5034423;28;20469;-69
2022/12/05 02:50:12;;;;;;;1999.90;999.90;;;4.10;99.90;;;;;;5034403;28;20518;-69
2022/12/05 02:52:38;;;;;;;1999.90;999.90;;;4.10;99.90;;;;;;5034292;28;20413;-70
2022/12/05 02:55:07;;;;;;;1999.90;999.90;;;4.10;99.90;;;;;;5034447;28;20429;-69
2022/12/05 02:57:35;;;;;;;1999.90;999.90;;;4.00;99.90;;;;;;5034279;28;20415;-69
2022/12/05 03:00:00;;;;;;;1999.90;999.90;;;4.00;99.90;;;;;;5034279;28;20464;-69
2022/12/05 03:02:32;;;;;;;1999.90;999.90;;;4.00;99.90;;;;;;5034408;28;20418;-70
2022/12/05 03:05:12;;;;;;;1999.90;999.90;;;3.90;99.90;;;;;;5034182;28;20236;-69
2022/12/05 03:07:41;;;;;;;1999.90;999.90;;;3.90;99.90;;;;;;5033657;28;20835;-69
2022/12/05 03:10:07;;;;;;;1999.90;999.90;;;3.90;99.90;;;;;;5034147;28;20861;-69
2022/12/05 03:12:38;;;;;;;1999.90;999.90;;;4.00;99.90;;;;;;5033861;28;20411;-69
2022/12/05 03:15:16;;;;;;;1999.90;999.90;;;3.90;99.90;;;;;;5034143;28;20498;-69
2022/12/05 03:18:03;;;;;;;1999.90;999.90;;;3.90;99.90;;;;;;5033633;28;20414;-69
2022/12/05 03:20:35;;;;;;;1999.90;999.90;;;4.00;99.90;;;;;;5034244;28;20419;-69
2022/12/05 03:23:07;;;;;;;1999.90;999.90;;;3.90;99.90;;;;;;5033973;28;20426;-69
2022/12/05 03:25:40;;;;;;;1999.90;999.90;;;3.90;99.90;;;;;;5033704;28;20442;-69
2022/12/05 03:28:22;;;;;;;1999.90;999.90;;;3.80;99.90;;;;;;5033328;28;20399;-69
2022/12/05 03:30:51;;;;;;;1999.90;999.90;;;3.70;99.90;;;;;;5033733;28;20448;-69
2022/12/05 03:33:22;;;;;;;1999.90;999.90;;;3.70;99.90;;;;;;5033192;28;20764;-69
2022/12/05 03:36:08;;;;;;;1999.90;999.90;;;3.60;99.90;;;;;;5033019;28;20393;-69
2022/12/05 03:38:55;;;;;;;1999.90;999.90;;;3.60;99.90;;;;;;5033019;28;20399;-69
2022/12/05 03:41:26;;;;;;;1999.90;999.90;;;3.50;99.90;;;;;;5033282;28;20468;-69
2022/12/05 03:44:13;;;;;;;1999.90;999.90;;;3.40;99.90;;;;;;5032722;28;20415;-69
2022/12/05 03:46:55;;;;;;;1999.90;999.90;;;3.40;99.90;;;;;;5032728;28;20391;-69
2022/12/05 03:49:35;;;;;;;1999.90;999.90;;;3.30;99.90;;;;;;5032822;28;21030;-69
2022/12/05 03:52:38;;;;;;;1999.90;999.90;;;3.20;99.90;;;;;;5032934;28;20502;-69
2022/12/05 03:55:07;;;;;;;1999.90;999.90;;;3.10;99.90;;;;;;5001312;28;20956;-69
2022/12/05 03:57:59;;;;;;;1999.90;999.90;;;3.10;99.90;;;;;;5032448;28;20537;-69
2022/12/05 04:00:48;;;;;;;1999.90;999.90;;;3.10;99.90;;;;;;5032671;28;20489;-69
2022/12/05 04:03:23;;;;;;;1999.90;999.90;;;3.10;99.90;;;;;;5032424;28;20991;-69
2022/12/05 04:06:00;;;;;;;1999.90;999.90;;;3.10;99.90;;;;;;5032611;28;20398;-69
2022/12/05 04:08:30;;;;;;;1999.90;999.90;;;3.10;99.90;;;;;;5032361;28;20830;-70
2022/12/05 04:11:00;;;;;;;1999.90;999.90;;;3.10;99.90;;;;;;5032210;28;20408;-69
2022/12/05 04:13:35;;;;;;;1999.90;999.90;;;3.10;99.90;;;;;;5032168;28;20188;-69
2022/12/05 04:19:00;;;;;;;1999.90;999.90;;;3.00;99.90;;;;;;5032373;28;20179;-70
2022/12/05 04:21:37;;;;;;;1999.90;999.90;;;3.00;99.90;;;;;;5032175;28;20226;-69
2022/12/05 04:27:32;;;;;;;1999.90;999.90;;;3.00;99.90;;;;;;5031858;28;20438;-69
2022/12/05 04:30:04;;;;;;;1999.90;999.90;;;3.00;99.90;;;;;;5031859;28;20280;-68
2022/12/05 04:32:39;;;;;;;1999.90;999.90;;;3.00;99.90;;;;;;5031965;28;20179;-69
2022/12/05 04:35:12;;;;;;;1999.90;999.90;;;3.00;99.90;;;;;;5032078;28;20399;-69
2022/12/05 04:37:42;;;;;;;1999.90;999.90;;;3.00;99.90;;;;;;5031732;28;20172;-70
2022/12/05 04:40:18;;;;;;;1999.90;999.90;;;2.90;99.90;;;;;;5031837;28;20426;-69
2022/12/05 04:42:46;;;;;;;1999.90;999.90;;;2.90;99.90;;;;;;5031962;28;20172;-69
2022/12/05 04:45:16;;;;;;;1999.90;999.90;;;2.90;99.90;;;;;;5031926;28;20781;-69
2022/12/05 04:47:49;;;;;;;1999.90;999.90;;;2.90;99.90;;;;;;5031670;28;20858;-70
2022/12/05 04:50:16;;;;;;;1999.90;999.90;;;2.90;99.90;;;;;;5031809;28;20200;-69
2022/12/05 04:52:46;;;;;;;1999.90;999.90;;;2.90;99.90;;;;;;5031797;28;20207;-69
2022/12/05 04:55:15;;;;;;;1999.90;999.90;;;2.90;99.90;;;;;;5031911;28;20847;-69
2022/12/05 04:58:03;;;;;;;1999.90;999.90;;;2.90;99.90;;;;;;5035563;28;20173;-70
2022/12/05 05:00:30;;;;;;;1999.90;999.90;;;2.90;99.90;;;;;;5035678;28;20168;-69
2022/12/05 05:03:05;;;;;;;1999.90;999.90;;;2.90;99.90;;;;;;5035728;28;20246;-69
2022/12/05 05:05:33;;;;;;;1999.90;999.90;;;2.90;99.90;;;;;;5035785;28;20421;-69
2022/12/05 05:07:58;;;;;;;1999.90;999.90;;;2.80;99.90;;;;;;5035348;28;20410;-70
2022/12/05 05:10:41;;;;;;;1999.90;999.90;;;2.80;99.90;;;;;;5035518;28;20196;-70
2022/12/05 05:13:06;;;;;;;1999.90;999.90;;;2.80;99.90;;;;;;5035515;28;20275;-70
2022/12/05 05:15:32;;;;;;;1999.90;999.90;;;2.80;99.90;;;;;;5034126;28;20223;-69
2022/12/05 05:17:57;;;;;;;1999.90;999.90;;;2.70;99.90;;;;;;5035245;28;20169;-69
2022/12/05 05:20:23;;;;;;;1999.90;999.90;;;2.70;99.90;;;;;;5035506;28;20665;-69
2022/12/05 05:22:50;;;;;;;1999.90;999.90;;;2.70;99.90;;;;;;5035256;28;20329;-69
2022/12/05 05:25:16;;;;;;;1999.90;999.90;;;2.60;99.90;;;;;;5035258;28;20630;-69
2022/12/05 05:27:41;;;;;;;1999.90;999.90;;;2.60;99.90;;;;;;5034982;28;20180;-69
2022/12/05 05:30:08;;;;;;;1999.90;999.90;;;2.60;99.90;;;;;;5035212;28;21014;-70
2022/12/05 05:32:34;;;;;;;1999.90;999.90;;;2.60;99.90;;;;;;5035289;28;20180;-70
2022/12/05 05:34:59;;;;;;;1999.90;999.90;;;2.60;99.90;;;;;;5035060;28;20186;-70
2022/12/05 05:37:25;;;;;;;1999.90;999.90;;;2.60;99.90;;;;;;5034888;28;20400;-69
2022/12/05 05:39:50;;;;;;;1999.90;999.90;;;2.70;99.90;;;;;;5034776;28;20180;-70
2022/12/05 05:42:16;;;;;;;1999.90;999.90;;;2.60;99.90;;;;;;5034788;28;20178;-69
2022/12/05 05:44:41;;;;;;;1999.90;999.90;;;2.70;99.90;;;;;;5034727;28;20188;-70
2022/12/05 05:47:07;;;;;;;1999.90;999.90;;;2.70;99.90;;;;;;5034421;28;20168;-69
2022/12/05 05:49:32;;;;;;;1999.90;999.90;;;2.70;99.90;;;;;;5034447;28;20203;-69
2022/12/05 05:51:58;;;;;;;1999.90;999.90;;;2.70;99.90;;;;;;5034438;28;20596;-70
2022/12/05 05:54:23;;;;;;;1999.90;999.90;;;2.60;99.90;;;;;;5034410;28;20208;-69
2022/12/05 05:56:49;;;;;;;1999.90;999.90;;;2.60;99.90;;;;;;5034274;28;20179;-70
2022/12/05 05:59:14;;;;;;;1999.90;999.90;;;2.60;99.90;;;;;;5034416;28;20200;-70
2022/12/05 06:01:40;;;;;;;1999.90;999.90;;;2.60;99.90;;;;;;5034503;28;20535;-69
2022/12/05 06:04:06;;;;;;;1999.90;999.90;;;2.60;99.90;;;;;;5034375;28;20258;-69
2022/12/05 06:06:32;;;;;;;1999.90;999.90;;;2.60;99.90;;;;;;5033911;28;20172;-69
2022/12/05 06:08:57;;;;;;;1999.90;999.90;;;2.60;99.90;;;;;;5033098;28;20295;-70
2022/12/05 06:11:25;;;;;;;1999.90;999.90;;;2.60;99.90;;;;;;5034154;28;20176;-69
2022/12/05 06:13:51;;;;;;;1999.90;999.90;;;2.60;99.90;;;;;;5034090;28;20632;-69
2022/12/05 06:16:17;;;;;;;1999.90;999.90;;;2.70;99.90;;;;;;5034041;28;20546;-69
2022/12/05 06:18:43;;;;;;;1999.90;999.90;;;2.60;99.90;;;;;;5033909;28;20183;-70
2022/12/05 06:21:10;;;;;;;1999.90;999.90;;;2.70;99.90;;;;;;5034102;28;20259;-69
2022/12/05 06:23:37;;;;;;;1999.90;999.90;;;2.70;99.90;;;;;;5033803;28;20439;-69
2022/12/05 06:26:04;;;;;;;1999.90;999.90;;;2.80;99.90;;;;;;5033847;28;20403;-69
2022/12/05 06:28:30;;;;;;;1999.90;999.90;;;2.70;99.90;;;;;;5033522;28;20768;-69
2022/12/05 06:30:55;;;;;;;1999.90;999.90;;;2.70;99.90;;;;;;5033770;28;20411;-69
2022/12/05 06:33:21;;;;;;;1999.90;999.90;;;2.80;99.90;;;;;;5033686;28;20419;-69
2022/12/05 06:35:47;;;;;;;1999.90;999.90;;;2.70;99.90;;;;;;5033795;28;20173;-69
2022/12/05 06:38:13;;;;;;;1999.90;999.90;;;2.70;99.90;;;;;;5033451;28;20653;-69
2022/12/05 06:40:40;;;;;;;1999.90;999.90;;;2.80;99.90;;;;;;5033581;28;20169;-69
2022/12/05 06:43:06;;;;;;;1999.90;999.90;;;2.70;99.90;;;;;;5033391;28;20222;-69
2022/12/05 06:45:31;;;;;;;1999.90;999.90;;;2.80;99.90;;;;;;5033513;28;20172;-69
2022/12/05 06:47:57;;;;;;;1999.90;999.90;;;2.70;99.90;;;;;;5033202;28;20180;-69
2022/12/05 06:50:23;;;;;;;1999.90;999.90;;;2.70;99.90;;;;;;5033405;28;20560;-69
2022/12/05 06:52:49;;;;;;;1999.90;999.90;;;2.70;99.90;;;;;;5033373;28;20193;-69
2022/12/05 06:55:15;;;;;;;1999.90;999.90;;;2.70;99.90;;;;;;5033419;28;20408;-69
2022/12/05 06:57:41;;;;;;;1999.90;999.90;;;2.70;99.90;;;;;;5032959;28;20528;-69
2022/12/05 07:02:52;;;;;;;1999.90;999.90;;;2.80;99.90;;;;;;5033405;28;20573;-70
2022/12/05 07:05:18;;;;;;;1999.90;999.90;;;2.80;99.90;;;;;;5033187;28;20441;-69
2022/12/05 07:07:44;;;;;;;1999.90;999.90;;;2.80;99.90;;;;;;5032826;28;20411;-69
2022/12/05 07:10:10;;;;;;;1999.90;999.90;;;2.80;99.90;;;;;;5032963;28;20279;-69
2022/12/05 07:12:35;;;;;;;1999.90;999.90;;;2.70;99.90;;;;;;5032862;28;20580;-69
2022/12/05 07:15:01;;;;;;;1999.90;999.90;;;2.70;99.90;;;;;;5033002;28;20164;-69
2022/12/05 07:17:27;;;;;;;1999.90;999.90;;;2.70;99.90;;;;;;5032692;28;20169;-69
2022/12/05 07:19:52;;;;;;;1999.90;999.90;;;2.70;99.90;;;;;;5032492;28;20728;-69
2022/12/05 07:22:20;;;;;;;1999.90;999.90;;;2.70;99.90;;;;;;5032947;28;20646;-69
2022/12/05 07:24:46;;;;;;;1999.90;999.90;;;2.70;99.90;;;;;;5032646;28;20194;-69
2022/12/05 07:27:13;;;;;;;1999.90;999.90;;;2.70;99.90;;;;;;5032564;28;20531;-69
2022/12/05 07:29:40;;;;;;;1999.90;999.90;;;2.70;99.90;;;;;;5032591;28;20195;-69
2022/12/05 07:32:06;;;;;;;1999.90;999.90;;;2.70;99.90;;;;;;5032648;28;20164;-69
2022/12/05 07:34:31;;;;;;;1999.90;999.90;;;2.70;99.90;;;;;;5032652;28;20215;-69
2022/12/05 07:36:57;;;;;;;1999.90;999.90;;;2.70;99.90;;;;;;5032351;28;20819;-69
2022/12/05 07:39:22;;;;;;;1999.90;999.90;;;2.70;99.90;;;;;;5032396;28;20176;-69
2022/12/05 07:41:48;;;;;;;1999.90;999.90;;;2.70;99.90;;;;;;5032477;28;20521;-69
2022/12/05 07:44:13;;;;;;;1999.90;999.90;;;2.70;99.90;;;;;;5032362;28;20215;-69
2022/12/05 07:46:39;;;;;;;1999.90;999.90;;;2.80;99.90;;;;;;5032330;28;20211;-69
2022/12/05 07:49:06;;;;;;;1999.90;999.90;;;2.80;99.90;;;;;;5032257;28;20214;-69
2022/12/05 07:51:33;;;;;;;1999.90;999.90;;;2.80;99.90;;;;;;5032398;28;20415;-69
2022/12/05 07:54:00;;;;;;;1999.90;999.90;;;2.90;99.90;;;;;;5032133;28;20439;-69
2022/12/05 07:56:26;;;;;;;1999.90;999.90;;;2.90;99.90;;;;;;5032258;28;20318;-69
2022/12/05 07:58:52;;;;;;;1999.90;999.90;;;2.90;99.90;;;;;;5032040;28;20200;-69
2022/12/05 08:01:26;;;;;;;1999.90;999.90;;;2.90;99.90;;;;;;5032135;28;20407;-69
2022/12/05 08:03:53;;;;;;;1999.90;999.90;;;3.00;99.90;;;;;;5032176;28;20916;-69
2022/12/05 08:06:22;;;;;;;1999.90;999.90;;;3.00;99.90;;;;;;5032062;28;20407;-69
2022/12/05 08:08:48;;;;;;;1999.90;999.90;;;3.00;99.90;;;;;;5031825;28;20504;-69
2022/12/05 08:11:23;;;;;;;1999.90;999.90;;;3.00;99.90;;;;;;5032276;28;20897;-69
2022/12/05 08:13:49;;;;;;;1999.90;999.90;;;3.00;99.90;;;;;;5031942;28;20196;-69
2022/12/05 08:16:17;;;;;;;1999.90;999.90;;;3.10;99.90;;;;;;5031896;28;20583;-69
2022/12/05 08:18:43;;;;;;;1999.90;999.90;;;3.20;99.90;;;;;;5032232;28;20457;-69
2022/12/05 08:21:12;;;;;;;1999.90;999.90;;;3.20;99.90;;;;;;5031963;28;20819;-69
2022/12/05 08:23:39;;;;;;;1999.90;999.90;;;3.30;99.90;;;;;;5031890;28;20736;-69
2022/12/05 08:26:14;;;;;;;1999.90;999.90;;;3.30;99.90;;;;;;5031788;28;20407;-70
2022/12/05 08:28:41;;;;;;;1999.90;999.90;;;3.30;99.90;;;;;;5031752;28;20469;-70
2022/12/05 08:31:15;;;;;;;1999.90;999.90;;;3.40;99.90;;;;;;5033394;28;20494;-70
2022/12/05 08:33:41;;;;;;;1999.90;999.90;;;3.40;99.90;;;;;;5035837;28;20422;-70
2022/12/05 08:36:09;;;;;;;1999.90;999.90;;;3.50;99.90;;;;;;5035889;28;20818;-70
2022/12/05 08:38:35;;;;;;;1999.90;999.90;;;3.60;99.90;;;;;;5035675;28;20417;-70
2022/12/05 08:41:03;;;;;;;1999.90;999.90;;;3.70;99.90;;;;;;5035788;28;20403;-70
2022/12/05 08:43:29;;;;;;;1999.90;999.90;;;3.70;99.90;;;;;;5035756;28;20767;-70
2022/12/05 08:45:55;;;;;;;1999.90;999.90;;;3.80;99.90;;;;;;5035684;28;20493;-70
2022/12/05 08:48:21;;;;;;;1999.90;999.90;;;3.90;99.90;;;;;;5035508;28;20935;-70
2022/12/05 08:50:47;;;;;;;1999.90;999.90;;;4.00;99.90;;;;;;5035634;28;20215;-69
2022/12/05 08:53:13;;;;;;;1999.90;999.90;;;4.00;99.90;;;;;;5035591;28;20848;-70
2022/12/05 08:55:39;;;;;;;1999.90;999.90;;;4.00;99.90;;;;;;5035807;28;20543;-70
2022/12/05 08:58:05;;;;;;;1999.90;999.90;;;4.10;99.90;;;;;;5035593;28;20403;-70
2022/12/05 09:00:30;;;;;;;1999.90;999.90;;;4.20;99.90;;;;;;5035679;28;20271;-70
2022/12/05 09:02:57;;;;;;;1999.90;999.90;;;4.20;99.90;;;;;;5035496;28;20223;-70
2022/12/05 09:05:23;;;;;;;1999.90;999.90;;;4.10;99.90;;;;;;5035474;28;20191;-70
2022/12/05 09:07:49;;;;;;;1999.90;999.90;;;4.10;99.90;;;;;;5035203;28;20407;-69
2022/12/05 09:10:14;;;;;;;1999.90;999.90;;;4.10;99.90;;;;;;5035225;28;20457;-70
2022/12/05 09:12:40;;;;;;;1999.90;999.90;;;4.10;99.90;;;;;;5035342;28;20255;-70
2022/12/05 09:15:07;;;;;;;1999.90;999.90;;;4.00;99.90;;;;;;5035253;28;20540;-70
2022/12/05 09:17:33;;;;;;;1999.90;999.90;;;4.00;99.90;;;;;;5034947;28;20207;-70
2022/12/05 09:19:59;;;;;;;1999.90;999.90;;;4.00;99.90;;;;;;5035077;28;20442;-70
2022/12/05 09:22:25;;;;;;;1999.90;999.90;;;3.90;99.90;;;;;;5035166;28;20199;-70
2022/12/05 09:24:50;;;;;;;1999.90;999.90;;;3.90;99.90;;;;;;5034935;28;20939;-70
2022/12/05 09:27:16;;;;;;;1999.90;999.90;;;3.90;99.90;;;;;;5034840;28;20176;-70
2022/12/05 09:29:42;;;;;;;1999.90;999.90;;;3.70;99.90;;;;;;5034822;28;20590;-70
2022/12/05 09:32:08;;;;;;;1999.90;999.90;;;3.40;99.90;;;;;;5034837;28;20226;-70
2022/12/05 09:34:34;;;;;;;1999.90;999.90;;;3.10;99.90;;;;;;5035035;28;20854;-69
2022/12/05 09:37:00;;;;;;;1999.90;999.90;;;2.90;99.90;;;;;;5034615;28;20407;-70
2022/12/05 09:39:27;;;;;;;1999.90;999.90;;;2.80;99.90;;;;;;5034798;28;20231;-70
2022/12/05 09:42:12;;;;;;;1999.90;999.90;;;2.60;99.90;;;;;;5034512;28;20403;-69
2022/12/05 09:44:52;;;;;;;1999.90;999.90;;;2.40;99.90;;;;;;5019846;28;20267;-72
2022/12/05 09:47:37;;;;;;;1999.90;999.90;;;2.30;99.90;;;;;;5014664;28;20635;-70
2022/12/05 09:50:28;;;;;;;1999.90;999.90;;;2.30;99.90;;;;;;5014503;28;20671;-73
2022/12/05 09:53:03;;;;;;;1999.90;999.90;;;2.50;99.90;;;;;;5015920;28;20224;-70
2022/12/05 09:55:53;;;;;;;1999.90;999.90;;;2.60;99.90;;;;;;5014731;28;20238;-69
2022/12/05 09:58:45;;;;;;;1999.90;999.90;;;2.70;99.90;;;;;;5014548;28;20184;-70
2022/12/05 10:01:39;;;;;;;1999.90;999.90;;;2.80;99.90;;;;;;5014456;28;20220;-69
2022/12/05 10:04:29;;;;;;;1999.90;999.90;;;3.00;99.90;;;;;;5016702;28;20917;-69
2022/12/05 10:07:21;;;;;;;1999.90;999.90;;;3.10;99.90;;;;;;5014951;28;20407;-69
2022/12/05 10:10:32;;;;;;;1999.90;999.90;;;3.20;99.90;;;;;;5013922;28;20573;-69
2022/12/05 10:13:19;;;;;;;1999.90;999.90;;;3.30;99.90;;;;;;5014026;28;20419;-70
2022/12/05 10:15:52;;;;;;;1999.90;999.90;;;3.40;99.90;;;;;;5014141;28;20483;-69
2022/12/05 10:18:39;;;;;;;1999.90;999.90;;;3.60;99.90;;;;;;5013549;28;20404;-68
2022/12/05 10:21:08;;;;;;;1999.90;999.90;;;3.70;99.90;;;;;;5014288;28;20475;-69
2022/12/05 10:23:54;;;;;;;1999.90;999.90;;;3.70;99.90;;;;;;5013900;28;20892;-68
2022/12/05 10:26:22;;;;;;;1999.90;999.90;;;3.80;99.90;;;;;;5013640;28;20400;-69
2022/12/05 10:28:53;;;;;;;1999.90;999.90;;;3.90;99.90;;;;;;5013866;28;20442;-69
2022/12/05 10:31:25;;;;;;;1999.90;999.90;;;3.80;99.90;;;;;;5013748;28;20480;-70
2022/12/05 10:34:01;;;;;;;1999.90;999.90;;;3.70;99.90;;;;;;5013203;28;20447;-69
2022/12/05 10:36:27;;;;;;;1999.90;999.90;;;3.60;99.90;;;;;;5013524;28;20411;-69
2022/12/05 10:38:55;;;;;;;1999.90;999.90;;;3.70;99.90;;;;;;5013445;28;20404;-70
2022/12/05 10:41:21;;;;;;;1999.90;999.90;;;3.60;99.90;;;;;;5013070;28;20177;-69
2022/12/05 10:43:48;;;;;;;1999.90;999.90;;;3.60;99.90;;;;;;5013559;28;20431;-68
2022/12/05 10:46:15;;;;;;;1999.90;999.90;;;3.60;99.90;;;;;;5013429;28;20184;-67
2022/12/05 10:48:42;;;;;;;1999.90;999.90;;;3.50;99.90;;;;;;5012705;28;20412;-69
2022/12/05 10:51:15;;;;;;;1999.90;999.90;;;3.40;99.90;;;;;;5013537;28;20437;-70
2022/12/05 10:53:49;;;;;;;1999.90;999.90;;;3.50;99.90;;;;;;5013187;28;20443;-74
2022/12/05 10:57:00;;;;;;;1999.90;999.90;;;3.50;99.90;;;;;;5013456;28;20952;-72
2022/12/05 10:59:44;;;;;;;1999.90;999.90;;;3.40;99.90;;;;;;5011133;28;20427;-73
2022/12/05 11:02:31;;;;;;;1999.90;999.90;;;3.20;99.90;;;;;;5013201;28;20396;-73
2022/12/05 11:04:57;;;;;;;1999.90;999.90;;;3.10;99.90;;;;;;5013800;28;20412;-72
2022/12/05 11:07:26;;;;;;;1999.90;999.90;;;3.00;99.90;;;;;;5013313;28;20404;-75
2022/12/05 11:09:52;;;;;;;1999.90;999.90;;;3.10;99.90;;;;;;5012987;28;20448;-72
2022/12/05 11:12:24;;;;;;;1999.90;999.90;;;3.00;99.90;;;;;;5013927;28;20562;-72
2022/12/05 11:15:03;;;;;;;1999.90;999.90;;;3.00;99.90;;;;;;5014289;28;20424;-71
2022/12/05 11:17:37;;;;;;;1999.90;999.90;;;3.00;99.90;;;;;;5013714;28;20407;-71
2022/12/05 11:20:22;;;;;;;1999.90;999.90;;;3.10;99.90;;;;;;5013710;28;20249;-69
2022/12/05 11:22:50;;;;;;;1999.90;999.90;;;3.10;99.90;;;;;;5014445;28;20407;-74
2022/12/05 11:25:25;;;;;;;1999.90;999.90;;;3.10;99.90;;;;;;5013917;28;20176;-73
2022/12/05 11:27:50;;;;;;;1999.90;999.90;;;3.10;99.90;;;;;;5013002;28;20407;-76
2022/12/05 11:30:21;;;;;;;1999.90;999.90;;;3.20;99.90;;;;;;5013010;28;20685;-72
2022/12/05 11:32:48;;;;;;;1999.90;999.90;;;3.30;99.90;;;;;;5012628;28;20467;-72
2022/12/05 11:35:16;;;;;;;1999.90;999.90;;;3.40;99.90;;;;;;5013340;28;20435;-71
2022/12/05 11:37:56;;;;;;;1999.90;999.90;;;3.50;99.90;;;;;;5012890;28;20172;-72
2022/12/05 11:40:38;;;;;;;1999.90;999.90;;;3.60;99.90;;;;;;5011861;28;20416;-68
2022/12/05 11:43:22;;;;;;;1999.90;999.90;;;3.70;99.90;;;;;;5012556;28;20463;-69
2022/12/05 11:45:59;;;;;;;1999.90;999.90;;;3.70;99.90;;;;;;5012448;28;20926;-70
2022/12/05 11:48:53;;;;;;;1999.90;999.90;;;3.70;99.90;;;;;;5011854;28;20399;-69
2022/12/05 11:51:48;;;;;;;1999.90;999.90;;;3.70;99.90;;;;;;5012346;28;20423;-69
2022/12/05 11:54:47;;;;;;;1999.90;999.90;;;3.70;99.90;;;;;;5011634;28;20890;-69
2022/12/05 11:57:32;;;;;;;1999.90;999.90;;;3.70;99.90;;;;;;5011948;28;20396;-70
2022/12/05 12:00:16;;;;;;;1999.90;999.90;;;3.70;99.90;;;;;;5009056;28;20943;-70
2022/12/05 12:02:53;;;;;;;1999.90;999.90;;;3.60;99.90;;;;;;5010765;28;20446;-70
2022/12/05 12:05:31;;;;;;;1999.90;999.90;;;3.50;99.90;;;;;;5012086;28;20400;-70
2022/12/05 12:08:11;;;;;;;1999.90;999.90;;;3.50;99.90;;;;;;5011603;28;20399;-70
2022/12/05 12:10:43;;;;;;;1999.90;999.90;;;3.50;99.90;;;;;;5010828;28;20821;-70
2022/12/05 12:13:20;;;;;;;1999.90;999.90;;;3.50;99.90;;;;;;5011835;28;20426;-70
2022/12/05 12:16:00;;;;;;;1999.90;999.90;;;3.50;99.90;;;;;;5011546;28;20465;-70
2022/12/05 12:18:55;;;;;;;1999.90;999.90;;;3.50;99.90;;;;;;5010586;28;20496;-70
2022/12/05 12:22:01;;;;;;;1999.90;999.90;;;3.50;99.90;;;;;;5012195;28;20395;-69
2022/12/05 12:24:29;;;;;;;1999.90;999.90;;;3.50;99.90;;;;;;5011149;28;20534;-69
2022/12/05 12:27:05;;;;;;;1999.90;999.90;;;3.60;99.90;;;;;;5011531;28;21009;-70
2022/12/05 12:29:50;;;;;;;1999.90;999.90;;;3.60;99.90;;;;;;5010157;28;20447;-69
2022/12/05 12:32:35;;;;;;;1999.90;999.90;;;3.60;99.90;;;;;;5011252;28;20396;-70
2022/12/05 12:35:26;;;;;;;1999.90;999.90;;;3.70;99.90;;;;;;5011757;28;20889;-70
2022/12/05 12:38:21;;;;;;;1999.90;999.90;;;3.70;99.90;;;;;;5011149;28;20977;-70
2022/12/05 12:40:53;;;;;;;1999.90;999.90;;;3.70;99.90;;;;;;5011885;28;20396;-70